Time,TemperatureF,DewpointF,PressureIn,WindDirection,WindDirectionDegrees,WindSpeedMPH,WindSpeedGustMPH,Humidity,HourlyPrecipIn,Conditions,Clouds,dailyrainin,SoftwareType,DateUTC
2015-03-06 00:02:00,25.0,16.0,30.47,SE,140,7.0,-999.0,68,-99.99,,,-99.99,,2015-03-06 06:02:00,
2015-03-06 00:12:00,25.0,16.0,30.47,SE,140,7.0,-999.0,68,-99.99,,,-99.99,,2015-03-06 06:12:00,
2015-03-06 00:42:00,25.0,14.0,30.45,SSE,150,8.0,-999.0,63,-99.99,,,-99.99,,2015-03-06 06:42:00,
2015-03-06 00:52:00,25.0,16.0,30.44,SSE,150,9.0,-999.0,68,-99.99,,,-99.99,,2015-03-06 06:52:00,
2015-03-06 01:02:00,25.0,16.0,30.44,SSE,150,9.0,-999.0,68,-99.99,,,-99.99,,2015-03-06 07:02:00,
2015-03-06 01:12:00,25.0,16.0,30.44,SSE,150,9.0,-999.0,68,-99.99,,,-99.99,,2015-03-06 07:12:00,
2015-03-06 01:22:00,25.0,16.0,30.44,SSE,150,9.0,-999.0,68,-99.99,,,-99.99,,2015-03-06 07:22:00,
2015-03-06 01:42:00,25.0,16.0,30.44,SSE,150,8.0,-999.0,68,-99.99,,,-99.99,,2015-03-06 07:42:00,
2015-03-06 01:52:00,25.0,14.0,30.44,SSE,150,8.0,-999.0,63,-99.99,,,-99.99,,2015-03-06 07:52:00,
2015-03-06 02:02:00,25.0,14.0,30.44,SSE,150,8.0,-999.0,63,-99.99,,,-99.99,,2015-03-06 08:02:00,
2015-03-06 02:22:00,25.0,14.0,30.45,SSE,160,6.0,-999.0,63,-99.99,,,-99.99,,2015-03-06 08:22:00,
2015-03-06 02:42:00,25.0,14.0,30.44,North,0,0.0,-999.0,63,-99.99,,,-99.99,,2015-03-06 08:42:00,
2015-03-06 03:22:00,23.0,16.0,30.43,South,180,5.0,-999.0,73,-99.99,,,-99.99,,2015-03-06 09:22:00,
2015-03-06 03:32:00,23.0,16.0,30.43,South,180,5.0,-999.0,73,-99.99,,,-99.99,,2015-03-06 09:32:00,
2015-03-06 03:43:00,23.0,16.0,30.43,South,180,5.0,-999.0,73,-99.99,,,-99.99,,2015-03-06 09:43:00,
2015-03-06 03:53:00,25.0,16.0,30.42,South,190,7.0,-999.0,68,-99.99,,,-99.99,,2015-03-06 09:53:00,
2015-03-06 04:03:00,25.0,16.0,30.42,South,190,7.0,-999.0,68,-99.99,,,-99.99,,2015-03-06 10:03:00,
2015-03-06 04:13:00,25.0,16.0,30.42,South,190,7.0,-999.0,68,-99.99,,,-99.99,,2015-03-06 10:13:00,
2015-03-06 04:23:00,25.0,16.0,30.42,South,190,7.0,-999.0,68,-99.99,,,-99.99,,2015-03-06 10:23:00,
2015-03-06 04:43:00,25.0,16.0,30.42,SSW,200,7.0,-999.0,68,-99.99,,,-99.99,,2015-03-06 10:43:00,
2015-03-06 04:53:00,25.0,16.0,30.42,South,190,7.0,-999.0,68,-99.99,,,-99.99,,2015-03-06 10:53:00,
2015-03-06 05:03:00,25.0,16.0,30.42,South,190,7.0,-999.0,68,-99.99,,,-99.99,,2015-03-06 11:03:00,
2015-03-06 05:22:00,25.0,16.0,30.43,South,190,8.0,-999.0,68,-99.99,,,-99.99,,2015-03-06 11:22:00,
2015-03-06 05:42:00,25.0,18.0,30.43,South,180,7.0,-999.0,73,-99.99,,,-99.99,,2015-03-06 11:42:00,
2015-03-06 06:22:00,25.0,18.0,30.43,SSW,210,8.0,-999.0,73,-99.99,,,-99.99,,2015-03-06 12:22:00,
2015-03-06 06:42:00,25.0,18.0,30.43,SSW,200,7.0,-999.0,73,-99.99,,,-99.99,,2015-03-06 12:42:00,
2015-03-06 06:52:00,25.0,18.0,30.42,South,190,10.0,-999.0,73,-99.99,,,-99.99,,2015-03-06 12:52:00,
2015-03-06 07:02:00,25.0,18.0,30.42,South,190,10.0,-999.0,73,-99.99,,,-99.99,,2015-03-06 13:02:00,
2015-03-06 07:12:00,25.0,18.0,30.42,South,190,10.0,-999.0,73,-99.99,,,-99.99,,2015-03-06 13:12:00,
2015-03-06 07:22:00,25.0,18.0,30.42,South,190,10.0,-999.0,73,-99.99,,,-99.99,,2015-03-06 13:22:00,
2015-03-06 07:42:00,27.0,18.0,30.42,SSW,200,9.0,-999.0,68,-99.99,,,-99.99,,2015-03-06 13:42:00,
2015-03-06 07:52:00,27.0,19.0,30.42,SSW,200,10.0,-999.0,73,-99.99,,,-99.99,,2015-03-06 13:52:00,
2015-03-06 08:02:00,27.0,19.0,30.42,SSW,200,10.0,-999.0,73,-99.99,,,-99.99,,2015-03-06 14:02:00,
2015-03-06 08:22:00,28.0,19.0,30.42,SSW,210,9.0,-999.0,68,-99.99,,,-99.99,,2015-03-06 14:22:00,
2015-03-06 08:42:00,30.0,19.0,30.42,SW,230,13.0,18.0,63,-99.99,,,-99.99,,2015-03-06 14:42:00,
2015-03-06 08:52:00,32.0,21.0,30.43,SW,230,10.0,16.0,63,-99.99,,,-99.99,,2015-03-06 14:52:00,
2015-03-06 09:02:00,32.0,21.0,30.43,SW,230,10.0,16.0,63,-99.99,,,-99.99,,2015-03-06 15:02:00,
2015-03-06 09:11:00,32.0,21.0,30.43,SW,230,10.0,16.0,63,-99.99,,,-99.99,,2015-03-06 15:11:00,
2015-03-06 09:22:00,32.0,21.0,30.43,SW,230,10.0,16.0,63,-99.99,,,-99.99,,2015-03-06 15:22:00,